Bents Old Fort, Colorado
Current Conditions -  °F | °C
As of 6:53 AM on Friday 24 Oct 2014 (Local Time) from KLHX Reporting Station
Clear Clear  
Wind Chill: 44°   Ceiling: Unl
Heat Index: 46°   Visibility: 10mi
Dew Point: 35°   Wind: 5mph
Humidity: 66%   Direction: 220°SW
Pressure: 30.13"   Gusts: NA
Location:  37.8368°N, 103.544°W
Report Text: KLHX 241253Z AUTO 22004KT 10SM CLR 08/02 A3013 RMK AO2 SLP171 T00780017
Loading
Personal Weather Stations






























Interactive Weather Map
Tropical Storm Tracking
New forecast layout! Learn more

10-Day Weather Forecast

Advertisements
Track Severe Weather on mobile